Time;durP1;ratioP1;P1;durP2;ratioP2;P2;SDS_P1;SDS_P2;PMS_P1;PMS_P2;Temp;Humidity;BMP_temperature;BMP_pressure;BME280_temperature;BME280_humidity;BME280_pressure;Samples;Min_cycle;Max_cycle;Signal;HPM_P1;HPM_P2
2021/04/08 00:00:18;;;;;;;5.63;3.67;;;;;;;;;;5092634;28;20581;-70
2021/04/08 00:03:22;;;;;;;5.43;3.80;;;;;;;;;;5092997;28;20549;-70
2021/04/08 00:06:26;;;;;;;7.20;3.60;;;;;;;;;;5069131;28;20601;-70
2021/04/08 00:09:30;;;;;;;8.80;3.53;;;;;;;;;;5068509;28;20644;-71
2021/04/08 00:12:35;;;;;;;7.50;3.70;;;;;;;;;;5083204;28;20950;-71
2021/04/08 00:15:39;;;;;;;6.03;3.80;;;;;;;;;;5095758;28;20596;-71
2021/04/08 00:18:43;;;;;;;7.70;4.00;;;;;;;;;;5096436;28;20619;-71
2021/04/08 00:21:47;;;;;;;4.87;3.57;;;;;;;;;;5079987;28;20594;-71
2021/04/08 00:24:52;;;;;;;6.83;3.20;;;;;;;;;;5096417;28;20593;-71
2021/04/08 00:27:56;;;;;;;7.90;3.57;;;;;;;;;;5076329;28;20570;-71
2021/04/08 00:31:00;;;;;;;9.60;3.70;;;;;;;;;;5076319;28;20542;-71
2021/04/08 00:34:04;;;;;;;8.83;3.43;;;;;;;;;;5075949;28;20992;-71
2021/04/08 00:37:08;;;;;;;5.73;3.33;;;;;;;;;;5094334;28;20580;-71
2021/04/08 00:40:14;;;;;;;4.30;2.90;;;;;;;;;;5086127;28;21225;-71
2021/04/08 00:43:18;;;;;;;5.23;3.10;;;;;;;;;;5075034;28;20916;-71
2021/04/08 00:46:32;;;;;;;5.87;3.20;;;;;;;;;;5079764;28;21186;-71
2021/04/08 00:49:37;;;;;;;7.27;3.20;;;;;;;;;;5085731;28;20640;-71
2021/04/08 00:52:51;;;;;;;5.27;3.43;;;;;;;;;;5095106;28;20537;-71
2021/04/08 00:55:56;;;;;;;5.20;3.40;;;;;;;;;;5095828;28;20557;-71
2021/04/08 00:59:01;;;;;;;5.67;3.10;;;;;;;;;;5093806;28;21166;-71
2021/04/08 01:02:07;;;;;;;5.27;3.30;;;;;;;;;;5088412;28;20597;-70
2021/04/08 01:05:11;;;;;;;9.27;3.60;;;;;;;;;;5075676;28;21064;-71
2021/04/08 01:08:16;;;;;;;6.27;3.63;;;;;;;;;;5075217;28;20613;-71
2021/04/08 01:11:20;;;;;;;6.20;3.87;;;;;;;;;;5075358;28;20912;-71
2021/04/08 01:14:25;;;;;;;6.20;3.93;;;;;;;;;;5086792;28;21153;-71
2021/04/08 01:17:52;;;;;;;5.60;3.77;;;;;;;;;;5080396;28;20617;-71
2021/04/08 01:21:19;;;;;;;9.57;4.53;;;;;;;;;;5075352;28;20527;-72
2021/04/08 01:25:00;;;;;;;4.27;3.53;;;;;;;;;;5085945;28;20573;-72
2021/04/08 01:28:37;;;;;;;8.47;3.97;;;;;;;;;;5094648;28;20656;-72
2021/04/08 01:31:43;;;;;;;6.87;4.07;;;;;;;;;;5075313;28;20582;-72
2021/04/08 01:34:50;;;;;;;7.30;3.90;;;;;;;;;;5075298;28;20543;-72
2021/04/08 01:37:56;;;;;;;7.47;3.60;;;;;;;;;;5075837;28;20594;-71
2021/04/08 01:41:01;;;;;;;7.30;3.80;;;;;;;;;;5094489;28;20573;-72
2021/04/08 01:44:10;;;;;;;5.57;3.43;;;;;;;;;;5087019;28;20585;-72
2021/04/08 01:47:14;;;;;;;6.93;3.93;;;;;;;;;;5077083;28;20625;-72
2021/04/08 01:50:34;;;;;;;8.37;3.77;;;;;;;;;;5094955;28;20549;-72
2021/04/08 01:53:44;;;;;;;7.20;3.43;;;;;;;;;;5094114;28;20597;-72
2021/04/08 01:56:52;;;;;;;9.60;3.47;;;;;;;;;;5085962;28;21183;-72
2021/04/08 01:59:57;;;;;;;6.73;4.10;;;;;;;;;;5074456;28;20617;-72
2021/04/08 02:03:02;;;;;;;8.07;4.43;;;;;;;;;;5085413;28;20589;-72
2021/04/08 02:06:10;;;;;;;7.73;4.07;;;;;;;;;;5094577;28;20541;-72
2021/04/08 02:09:16;;;;;;;9.90;4.23;;;;;;;;;;5094579;28;20616;-72
2021/04/08 02:12:20;;;;;;;10.57;4.20;;;;;;;;;;5079504;28;20604;-71
2021/04/08 02:15:25;;;;;;;8.43;4.03;;;;;;;;;;5094082;28;20617;-71
2021/04/08 02:18:30;;;;;;;9.00;4.83;;;;;;;;;;5094155;28;20628;-71
2021/04/08 02:21:34;;;;;;;6.33;4.33;;;;;;;;;;5094710;28;20538;-72
2021/04/08 02:24:39;;;;;;;5.13;4.10;;;;;;;;;;5084151;28;20590;-71
2021/04/08 02:27:44;;;;;;;5.00;3.83;;;;;;;;;;5083331;28;20620;-71
2021/04/08 02:30:50;;;;;;;7.00;4.00;;;;;;;;;;5093635;28;20943;-71
2021/04/08 02:33:54;;;;;;;10.23;4.17;;;;;;;;;;5093419;28;20549;-71
2021/04/08 02:36:58;;;;;;;6.70;3.60;;;;;;;;;;5090463;28;20578;-72
2021/04/08 02:40:08;;;;;;;6.73;4.20;;;;;;;;;;5073456;28;20625;-71
2021/04/08 02:43:13;;;;;;;7.87;4.50;;;;;;;;;;5087501;28;20620;-72
2021/04/08 02:46:17;;;;;;;7.10;4.60;;;;;;;;;;5093563;28;21154;-72
2021/04/08 02:49:22;;;;;;;5.80;4.50;;;;;;;;;;5093591;28;20994;-72
2021/04/08 02:52:34;;;;;;;6.40;4.83;;;;;;;;;;5091229;28;21150;-72
2021/04/08 02:55:43;;;;;;;6.07;5.00;;;;;;;;;;5093727;28;21095;-72
2021/04/08 02:58:48;;;;;;;9.83;5.17;;;;;;;;;;5073178;28;20976;-72
2021/04/08 03:02:01;;;;;;;7.77;5.40;;;;;;;;;;5083549;28;20585;-72
2021/04/08 03:05:08;;;;;;;10.43;5.30;;;;;;;;;;5084389;28;20597;-72
2021/04/08 03:08:17;;;;;;;8.73;5.53;;;;;;;;;;5072964;28;20649;-72
2021/04/08 03:11:34;;;;;;;10.80;6.00;;;;;;;;;;5078861;28;20612;-72
2021/04/08 03:14:42;;;;;;;9.57;5.93;;;;;;;;;;5093535;28;20542;-72
2021/04/08 03:17:48;;;;;;;8.23;6.80;;;;;;;;;;5092327;28;21095;-72
2021/04/08 03:20:54;;;;;;;10.70;6.67;;;;;;;;;;5076424;28;20613;-72
2021/04/08 03:24:00;;;;;;;10.90;6.77;;;;;;;;;;5087821;28;20574;-72
2021/04/08 03:27:06;;;;;;;10.40;7.23;;;;;;;;;;5080272;28;20629;-72
2021/04/08 03:30:12;;;;;;;10.00;7.07;;;;;;;;;;5072857;28;20617;-71
2021/04/08 03:33:17;;;;;;;9.90;6.73;;;;;;;;;;5087259;28;20596;-72
2021/04/08 03:36:21;;;;;;;11.27;7.97;;;;;;;;;;5093040;28;20592;-72
2021/04/08 03:39:26;;;;;;;11.87;7.40;;;;;;;;;;5080525;28;20620;-72
2021/04/08 03:42:30;;;;;;;9.30;6.50;;;;;;;;;;5079722;28;20590;-71
2021/04/08 03:45:34;;;;;;;11.70;6.83;;;;;;;;;;5073107;28;20590;-72
2021/04/08 03:48:41;;;;;;;10.77;7.00;;;;;;;;;;5076722;28;20657;-71
2021/04/08 03:51:46;;;;;;;9.97;7.60;;;;;;;;;;5088888;28;20592;-71
2021/04/08 03:54:51;;;;;;;10.77;7.50;;;;;;;;;;5096748;28;20549;-71
2021/04/08 03:57:57;;;;;;;11.60;7.40;;;;;;;;;;5096720;28;20612;-71
2021/04/08 04:01:02;;;;;;;9.93;6.87;;;;;;;;;;5092372;22;20677;-75
2021/04/08 04:04:09;;;;;;;8.83;7.20;;;;;;;;;;5076435;28;20944;-75
2021/04/08 04:07:15;;;;;;;8.97;6.60;;;;;;;;;;5076337;28;21038;-75
2021/04/08 04:10:21;;;;;;;12.87;7.23;;;;;;;;;;5056148;28;20610;-75
2021/04/08 04:13:28;;;;;;;10.13;6.80;;;;;;;;;;5035884;28;20888;-75
2021/04/08 04:16:36;;;;;;;8.47;6.53;;;;;;;;;;5037109;28;20938;-75
2021/04/08 04:19:41;;;;;;;10.13;6.57;;;;;;;;;;5040782;28;20642;-74
2021/04/08 04:22:45;;;;;;;9.13;6.93;;;;;;;;;;5022440;28;20587;-74
2021/04/08 04:25:49;;;;;;;9.33;6.83;;;;;;;;;;5055861;28;20587;-74
2021/04/08 04:28:54;;;;;;;11.80;6.80;;;;;;;;;;5055962;28;20674;-74
2021/04/08 04:31:58;;;;;;;10.63;7.83;;;;;;;;;;5056160;28;20682;-74
2021/04/08 04:35:03;;;;;;;8.53;6.83;;;;;;;;;;5056000;28;20610;-73
2021/04/08 04:38:07;;;;;;;10.97;6.43;;;;;;;;;;5055688;28;21065;-74
2021/04/08 04:41:11;;;;;;;10.37;6.27;;;;;;;;;;5043787;28;21057;-74
2021/04/08 04:44:16;;;;;;;9.97;7.03;;;;;;;;;;5054925;28;20546;-74
2021/04/08 04:47:20;;;;;;;10.13;7.23;;;;;;;;;;5043269;28;20641;-74
2021/04/08 04:50:25;;;;;;;10.37;7.70;;;;;;;;;;5043304;28;21155;-74
2021/04/08 04:53:29;;;;;;;9.57;7.10;;;;;;;;;;5056107;28;21065;-74
2021/04/08 04:56:33;;;;;;;9.20;6.97;;;;;;;;;;5043214;28;20555;-74
2021/04/08 04:59:38;;;;;;;10.90;7.50;;;;;;;;;;5043295;28;20633;-75
2021/04/08 05:02:42;;;;;;;11.53;7.33;;;;;;;;;;5055507;28;20555;-74
2021/04/08 05:05:47;;;;;;;8.50;7.07;;;;;;;;;;5055830;28;20542;-74
2021/04/08 05:08:51;;;;;;;10.20;6.80;;;;;;;;;;5055259;28;20658;-74
2021/04/08 05:11:55;;;;;;;8.83;6.67;;;;;;;;;;5055175;28;20898;-74
2021/04/08 05:14:59;;;;;;;9.33;6.70;;;;;;;;;;5043022;28;20582;-75
2021/04/08 05:18:03;;;;;;;8.33;6.77;;;;;;;;;;5055284;28;20539;-76
2021/04/08 05:21:07;;;;;;;11.37;7.03;;;;;;;;;;5055262;28;20544;-76
2021/04/08 05:24:11;;;;;;;10.17;7.17;;;;;;;;;;5043508;28;21124;-77
2021/04/08 05:27:16;;;;;;;8.63;6.97;;;;;;;;;;5055133;28;20547;-77
2021/04/08 05:30:20;;;;;;;14.43;10.27;;;;;;;;;;5043042;28;20538;-74
2021/04/08 05:33:25;;;;;;;12.30;7.23;;;;;;;;;;5054325;28;20551;-74
2021/04/08 05:36:29;;;;;;;8.10;6.43;;;;;;;;;;5055309;28;20538;-74
2021/04/08 05:39:34;;;;;;;7.57;6.77;;;;;;;;;;5055025;28;20618;-74
2021/04/08 05:42:43;;;;;;;8.60;7.53;;;;;;;;;;5054964;28;20535;-74
2021/04/08 05:45:47;;;;;;;9.53;5.97;;;;;;;;;;5054748;28;20559;-75
2021/04/08 05:48:51;;;;;;;8.07;6.07;;;;;;;;;;5053613;28;21207;-74
2021/04/08 05:51:56;;;;;;;6.77;5.80;;;;;;;;;;5042521;28;20535;-75
2021/04/08 05:54:59;;;;;;;10.13;7.33;;;;;;;;;;5055004;28;20543;-74
2021/04/08 05:58:03;;;;;;;10.03;6.40;;;;;;;;;;5053528;28;20546;-74
2021/04/08 06:01:08;;;;;;;6.33;5.20;;;;;;;;;;5054252;28;20937;-75
2021/04/08 06:04:12;;;;;;;7.07;5.57;;;;;;;;;;5054850;28;20538;-75
2021/04/08 06:07:16;;;;;;;9.53;7.03;;;;;;;;;;5054673;28;20544;-75
2021/04/08 06:10:20;;;;;;;8.07;5.63;;;;;;;;;;5043230;28;20582;-76
2021/04/08 06:13:24;;;;;;;8.60;5.70;;;;;;;;;;5035819;28;20618;-74
2021/04/08 06:16:29;;;;;;;10.43;5.70;;;;;;;;;;5034061;28;21141;-74
2021/04/08 06:19:33;;;;;;;10.10;6.20;;;;;;;;;;5046397;28;20634;-74
2021/04/08 06:22:37;;;;;;;8.23;5.43;;;;;;;;;;5041935;28;20898;-74
2021/04/08 06:25:41;;;;;;;8.47;5.20;;;;;;;;;;5054274;28;20941;-74
2021/04/08 06:28:45;;;;;;;8.60;5.00;;;;;;;;;;5018917;28;20657;-75
2021/04/08 06:31:49;;;;;;;9.07;5.00;;;;;;;;;;5053712;28;21183;-75
2021/04/08 06:34:54;;;;;;;7.90;5.50;;;;;;;;;;5053944;28;20543;-75
2021/04/08 06:37:58;;;;;;;9.67;5.40;;;;;;;;;;5041254;28;20594;-75
2021/04/08 06:41:02;;;;;;;8.40;5.23;;;;;;;;;;5054043;28;20602;-75
2021/04/08 06:44:08;;;;;;;7.33;5.47;;;;;;;;;;5054079;28;20543;-75
2021/04/08 06:47:12;;;;;;;7.47;5.90;;;;;;;;;;5053702;28;20554;-75
2021/04/08 06:50:20;;;;;;;11.20;6.20;;;;;;;;;;5053622;28;20603;-75
2021/04/08 06:53:25;;;;;;;11.00;6.50;;;;;;;;;;5041355;28;21069;-76
2021/04/08 06:56:31;;;;;;;7.90;5.73;;;;;;;;;;5053306;28;20551;-75
2021/04/08 06:59:35;;;;;;;6.07;5.00;;;;;;;;;;5053394;28;20649;-75
2021/04/08 07:02:40;;;;;;;8.07;5.37;;;;;;;;;;5053196;28;21093;-75
2021/04/08 07:05:45;;;;;;;10.53;6.93;;;;;;;;;;5041181;28;20539;-76
2021/04/08 07:08:49;;;;;;;26.43;16.13;;;;;;;;;;5052990;28;20666;-75
2021/04/08 07:11:53;;;;;;;5.83;4.83;;;;;;;;;;5053543;28;20559;-75
2021/04/08 07:14:58;;;;;;;6.53;4.67;;;;;;;;;;5053386;28;20543;-75
2021/04/08 07:18:04;;;;;;;100.60;43.13;;;;;;;;;;5040712;28;20547;-76
2021/04/08 07:21:08;;;;;;;9.00;6.87;;;;;;;;;;5053127;28;20550;-75
2021/04/08 07:24:18;;;;;;;16.50;10.27;;;;;;;;;;5053240;28;20547;-75
2021/04/08 07:27:25;;;;;;;9.87;5.83;;;;;;;;;;5053039;28;20554;-76
2021/04/08 07:30:29;;;;;;;39.27;20.03;;;;;;;;;;5029519;28;20536;-76
2021/04/08 07:33:40;;;;;;;11.53;6.77;;;;;;;;;;5042280;28;20554;-78
2021/04/08 07:36:53;;;;;;;22.80;13.40;;;;;;;;;;5042694;28;20590;-79
2021/04/08 07:40:19;;;;;;;7.83;5.40;;;;;;;;;;5028076;28;20619;-78
2021/04/08 07:43:23;;;;;;;12.00;7.37;;;;;;;;;;5025798;28;20556;-78
2021/04/08 07:46:47;;;;;;;7.57;5.37;;;;;;;;;;5010544;28;20536;-77
2021/04/08 07:49:54;;;;;;;12.03;8.60;;;;;;;;;;5020890;28;20667;-77
2021/04/08 07:52:59;;;;;;;7.27;6.10;;;;;;;;;;5032310;28;20540;-77
2021/04/08 07:56:30;;;;;;;7.73;5.30;;;;;;;;;;5009746;28;20914;-77
2021/04/08 07:59:34;;;;;;;9.53;5.90;;;;;;;;;;5020627;28;20631;-77
2021/04/08 08:02:39;;;;;;;8.67;5.70;;;;;;;;;;5026233;28;20540;-78
2021/04/08 08:05:47;;;;;;;10.90;5.97;;;;;;;;;;5034526;28;20540;-76
2021/04/08 08:09:04;;;;;;;36.17;28.97;;;;;;;;;;5038753;28;20658;-76
2021/04/08 08:12:09;;;;;;;12.07;7.70;;;;;;;;;;5052013;28;20543;-73
2021/04/08 08:15:32;;;;;;;13.40;9.00;;;;;;;;;;5052846;28;20594;-78
2021/04/08 08:18:41;;;;;;;20.50;15.90;;;;;;;;;;5052660;28;20614;-78
2021/04/08 08:21:45;;;;;;;7.83;4.67;;;;;;;;;;5045346;28;20540;-79
2021/04/08 08:24:53;;;;;;;10.37;5.00;;;;;;;;;;5031623;28;20602;-78
2021/04/08 08:27:57;;;;;;;10.23;5.83;;;;;;;;;;5040662;28;20586;-77
2021/04/08 08:31:02;;;;;;;8.30;6.17;;;;;;;;;;5051790;28;20575;-76
2021/04/08 08:34:10;;;;;;;10.40;5.77;;;;;;;;;;5055952;28;20590;-77
2021/04/08 08:37:14;;;;;;;7.00;4.60;;;;;;;;;;5037654;28;20880;-77
2021/04/08 08:40:19;;;;;;;9.53;4.90;;;;;;;;;;5044454;28;20953;-76
2021/04/08 08:43:23;;;;;;;7.50;5.00;;;;;;;;;;5043628;28;20590;-76
2021/04/08 08:46:29;;;;;;;5.50;4.00;;;;;;;;;;5055589;28;20594;-77
2021/04/08 08:49:48;;;;;;;7.00;4.57;;;;;;;;;;5035140;28;20645;-78
2021/04/08 08:52:53;;;;;;;8.07;4.43;;;;;;;;;;5038355;28;20544;-78
2021/04/08 08:55:57;;;;;;;6.80;4.77;;;;;;;;;;5037664;28;20599;-78
2021/04/08 08:59:02;;;;;;;6.53;4.60;;;;;;;;;;5029200;28;20215;-77
2021/04/08 09:02:09;;;;;;;7.73;4.93;;;;;;;;;;5023964;28;20177;-77
2021/04/08 09:05:34;;;;;;;5.13;4.57;;;;;;;;;;5024584;28;20181;-78
2021/04/08 09:08:41;;;;;;;5.50;4.60;;;;;;;;;;5044233;28;20224;-78
2021/04/08 09:11:46;;;;;;;8.00;4.77;;;;;;;;;;5039805;28;20598;-78
2021/04/08 09:14:50;;;;;;;9.13;4.43;;;;;;;;;;5045074;28;20207;-78
2021/04/08 09:17:56;;;;;;;7.13;4.40;;;;;;;;;;5039454;28;20184;-77
2021/04/08 09:21:01;;;;;;;6.73;4.33;;;;;;;;;;5045463;28;20652;-78
2021/04/08 09:24:10;;;;;;;6.00;4.80;;;;;;;;;;5047451;28;20635;-78
2021/04/08 09:27:21;;;;;;;7.13;4.63;;;;;;;;;;5061151;28;20200;-79
2021/04/08 09:30:33;;;;;;;7.77;5.20;;;;;;;;;;5029902;28;20663;-77
2021/04/08 09:33:40;;;;;;;8.83;6.80;;;;;;;;;;5043107;28;20185;-79
2021/04/08 09:36:52;;;;;;;9.77;6.93;;;;;;;;;;5043371;28;21144;-78
2021/04/08 09:39:56;;;;;;;11.03;8.30;;;;;;;;;;5058234;28;20216;-78
2021/04/08 09:43:22;;;;;;;5.67;4.37;;;;;;;;;;5047337;28;20196;-78
2021/04/08 09:46:37;;;;;;;5.90;3.70;;;;;;;;;;5061220;28;20546;-77
2021/04/08 09:49:42;;;;;;;7.10;4.33;;;;;;;;;;5040147;28;20224;-78
2021/04/08 09:52:56;;;;;;;5.33;4.00;;;;;;;;;;5049089;28;20196;-77
2021/04/08 09:56:02;;;;;;;4.20;3.53;;;;;;;;;;5051290;28;20184;-78
2021/04/08 09:59:07;;;;;;;5.87;3.67;;;;;;;;;;5037294;28;20223;-77
2021/04/08 10:02:15;;;;;;;5.83;3.67;;;;;;;;;;5062069;22;20231;-78
2021/04/08 10:05:19;;;;;;;7.60;4.83;;;;;;;;;;5053185;28;20207;-77
2021/04/08 10:08:25;;;;;;;7.27;3.80;;;;;;;;;;5084902;28;20604;-77
2021/04/08 10:11:31;;;;;;;5.83;3.70;;;;;;;;;;5045100;28;20180;-77
2021/04/08 10:14:52;;;;;;;6.00;3.40;;;;;;;;;;5050912;28;20547;-77
2021/04/08 10:17:56;;;;;;;11.20;3.90;;;;;;;;;;5061537;28;20179;-77
2021/04/08 10:21:03;;;;;;;7.50;3.80;;;;;;;;;;5048814;28;20641;-78
2021/04/08 10:24:15;;;;;;;6.33;4.00;;;;;;;;;;5013624;28;20180;-77
2021/04/08 10:27:24;;;;;;;6.00;3.50;;;;;;;;;;5041946;28;20627;-77
2021/04/08 10:30:34;;;;;;;4.07;3.40;;;;;;;;;;5045942;28;20208;-77
2021/04/08 10:33:39;;;;;;;4.60;3.70;;;;;;;;;;5027188;28;20180;-77
2021/04/08 10:36:49;;;;;;;4.50;3.67;;;;;;;;;;5053801;28;20188;-77
2021/04/08 10:39:53;;;;;;;6.80;4.00;;;;;;;;;;5029650;28;20220;-72
2021/04/08 10:43:08;;;;;;;7.50;3.73;;;;;;;;;;5044190;28;20555;-72
2021/04/08 10:46:19;;;;;;;5.20;3.40;;;;;;;;;;5068304;28;20184;-72
2021/04/08 10:49:28;;;;;;;6.87;3.57;;;;;;;;;;5041338;28;20219;-72
2021/04/08 10:52:38;;;;;;;5.70;3.40;;;;;;;;;;5053699;28;20542;-72
2021/04/08 10:55:42;;;;;;;8.43;3.47;;;;;;;;;;5034278;28;20559;-73
2021/04/08 10:58:46;;;;;;;13.13;3.83;;;;;;;;;;5073178;28;20215;-73
2021/04/08 11:01:51;;;;;;;6.87;3.33;;;;;;;;;;5045746;28;20669;-73
2021/04/08 11:04:58;;;;;;;4.47;3.30;;;;;;;;;;5048227;28;20196;-72
2021/04/08 11:08:02;;;;;;;6.73;3.67;;;;;;;;;;5041137;28;20188;-72
2021/04/08 11:11:06;;;;;;;5.40;3.30;;;;;;;;;;5042583;28;20212;-72
2021/04/08 11:14:19;;;;;;;3.97;2.93;;;;;;;;;;5073623;28;20183;-73
2021/04/08 11:17:26;;;;;;;7.70;3.30;;;;;;;;;;5060972;28;20203;-72
2021/04/08 11:20:37;;;;;;;5.10;3.00;;;;;;;;;;5056304;28;20184;-72
2021/04/08 11:23:41;;;;;;;8.73;3.63;;;;;;;;;;5033585;28;20497;-72
2021/04/08 11:26:51;;;;;;;5.33;2.80;;;;;;;;;;5070293;28;20188;-72
2021/04/08 11:29:55;;;;;;;18.73;5.97;;;;;;;;;;5062952;28;20215;-72
2021/04/08 11:33:01;;;;;;;12.27;3.60;;;;;;;;;;5052981;28;20180;-71
2021/04/08 11:36:16;;;;;;;7.20;3.40;;;;;;;;;;5041813;28;20187;-73
2021/04/08 11:39:20;;;;;;;5.33;3.47;;;;;;;;;;5017100;28;20236;-72
2021/04/08 11:42:25;;;;;;;7.03;3.70;;;;;;;;;;5033058;28;20188;-72
2021/04/08 11:45:30;;;;;;;6.53;3.60;;;;;;;;;;5033076;28;20181;-71
2021/04/08 11:48:41;;;;;;;4.43;3.10;;;;;;;;;;5023875;28;20224;-73
2021/04/08 11:51:48;;;;;;;5.53;3.53;;;;;;;;;;5013363;28;20166;-73
2021/04/08 11:55:00;;;;;;;8.50;3.23;;;;;;;;;;5024202;28;20186;-72
2021/04/08 11:58:06;;;;;;;5.60;2.70;;;;;;;;;;5031279;28;20205;-72
2021/04/08 12:01:17;;;;;;;3.87;2.57;;;;;;;;;;5013125;28;20181;-72
2021/04/08 12:04:27;;;;;;;5.10;2.73;;;;;;;;;;5017202;28;20185;-73
2021/04/08 12:07:40;;;;;;;4.80;2.70;;;;;;;;;;5013767;28;20173;-72
2021/04/08 12:10:44;;;;;;;4.00;2.60;;;;;;;;;;5032618;28;20213;-72
2021/04/08 12:14:05;;;;;;;4.37;3.20;;;;;;;;;;5026119;28;20190;-73
2021/04/08 12:17:11;;;;;;;5.77;2.90;;;;;;;;;;5021578;28;20190;-74
2021/04/08 12:20:20;;;;;;;5.40;2.80;;;;;;;;;;5015954;28;20691;-74
2021/04/08 12:23:32;;;;;;;4.53;2.87;;;;;;;;;;5015990;28;20197;-73
2021/04/08 12:26:40;;;;;;;6.30;3.07;;;;;;;;;;5031628;28;20586;-73
2021/04/08 12:29:44;;;;;;;4.57;2.43;;;;;;;;;;5015981;28;20229;-73
2021/04/08 12:32:50;;;;;;;4.20;2.47;;;;;;;;;;5034791;28;20188;-73
2021/04/08 12:35:55;;;;;;;6.97;3.23;;;;;;;;;;5036656;28;20177;-74
2021/04/08 12:38:59;;;;;;;7.57;3.10;;;;;;;;;;5018294;28;20700;-73
2021/04/08 12:42:04;;;;;;;5.20;2.83;;;;;;;;;;5028630;28;20189;-73
2021/04/08 12:45:10;;;;;;;5.20;3.10;;;;;;;;;;5033708;28;20177;-74
2021/04/08 12:48:14;;;;;;;6.57;5.70;;;;;;;;;;5015974;28;20615;-74
2021/04/08 12:51:19;;;;;;;5.20;3.10;;;;;;;;;;5021278;28;20208;-74
2021/04/08 12:54:23;;;;;;;3.93;2.90;;;;;;;;;;5036073;28;20181;-74
2021/04/08 12:57:27;;;;;;;4.27;3.20;;;;;;;;;;5023384;28;20197;-74
2021/04/08 13:00:32;;;;;;;4.03;3.03;;;;;;;;;;5034781;28;20188;-74
2021/04/08 13:03:37;;;;;;;4.30;3.07;;;;;;;;;;5014891;28;20213;-74
2021/04/08 13:06:41;;;;;;;4.30;3.07;;;;;;;;;;5021699;28;20563;-74
2021/04/08 13:09:46;;;;;;;24.00;12.83;;;;;;;;;;5026054;28;20687;-74
2021/04/08 13:12:50;;;;;;;5.83;3.57;;;;;;;;;;5015067;28;20192;-76
2021/04/08 13:15:54;;;;;;;26.37;14.67;;;;;;;;;;5014811;28;20193;-77
2021/04/08 13:18:58;;;;;;;6.23;4.60;;;;;;;;;;5034893;28;20710;-72
2021/04/08 13:22:02;;;;;;;5.90;3.23;;;;;;;;;;5017455;28;20189;-71
2021/04/08 13:25:08;;;;;;;3.87;2.80;;;;;;;;;;5015864;28;20185;-75
2021/04/08 13:28:12;;;;;;;4.80;3.10;;;;;;;;;;5033124;28;20189;-75
2021/04/08 13:31:16;;;;;;;5.07;3.27;;;;;;;;;;5033827;28;20216;-76
2021/04/08 13:34:20;;;;;;;3.77;3.40;;;;;;;;;;5034449;28;20552;-75
2021/04/08 13:37:26;;;;;;;3.70;3.00;;;;;;;;;;5023461;28;20193;-75
2021/04/08 13:40:36;;;;;;;7.10;3.20;;;;;;;;;;5020740;28;20192;-75
2021/04/08 13:43:51;;;;;;;6.00;2.77;;;;;;;;;;5034824;28;20193;-75
2021/04/08 13:47:08;;;;;;;5.77;2.90;;;;;;;;;;5028083;28;20204;-75
2021/04/08 13:50:13;;;;;;;18.33;3.67;;;;;;;;;;5014070;28;20221;-75
2021/04/08 13:53:17;;;;;;;5.20;3.17;;;;;;;;;;5032385;28;20667;-75
2021/04/08 13:56:21;;;;;;;8.00;5.73;;;;;;;;;;5031101;28;20185;-76
2021/04/08 13:59:25;;;;;;;5.63;3.17;;;;;;;;;;5033275;28;20397;-75
2021/04/08 14:02:29;;;;;;;3.47;3.10;;;;;;;;;;5033754;28;20204;-74
2021/04/08 14:05:34;;;;;;;5.83;3.13;;;;;;;;;;5033696;28;20632;-74
2021/04/08 14:08:38;;;;;;;5.77;3.30;;;;;;;;;;5030643;28;20686;-74
2021/04/08 14:11:43;;;;;;;5.77;3.00;;;;;;;;;;5022369;28;20204;-73
2021/04/08 14:14:47;;;;;;;6.63;3.20;;;;;;;;;;5034432;28;20636;-73
2021/04/08 14:17:53;;;;;;;6.33;3.27;;;;;;;;;;5034046;28;20169;-74
2021/04/08 14:20:58;;;;;;;6.10;3.20;;;;;;;;;;5033278;28;20169;-73
2021/04/08 14:24:03;;;;;;;3.27;2.97;;;;;;;;;;5034317;28;20185;-73
2021/04/08 14:27:08;;;;;;;7.30;4.97;;;;;;;;;;5033245;28;20185;-73
2021/04/08 14:30:12;;;;;;;8.90;4.40;;;;;;;;;;5033179;28;20212;-73
2021/04/08 14:33:17;;;;;;;9.03;6.80;;;;;;;;;;5033976;28;20184;-73
2021/04/08 14:36:21;;;;;;;5.93;5.33;;;;;;;;;;5034341;28;20176;-73
2021/04/08 14:39:28;;;;;;;8.10;3.13;;;;;;;;;;5033714;28;20212;-73
2021/04/08 14:42:33;;;;;;;4.37;3.07;;;;;;;;;;5034009;28;20177;-73
2021/04/08 14:45:38;;;;;;;5.13;3.00;;;;;;;;;;5033347;28;20177;-74
2021/04/08 14:48:44;;;;;;;6.87;3.20;;;;;;;;;;5032750;28;20217;-74
2021/04/08 14:51:48;;;;;;;6.27;3.40;;;;;;;;;;5032919;28;20200;-74
2021/04/08 14:54:52;;;;;;;4.77;3.00;;;;;;;;;;5021431;28;20205;-73
2021/04/08 14:57:57;;;;;;;4.73;3.50;;;;;;;;;;5033737;28;20181;-73
2021/04/08 15:01:03;;;;;;;8.33;3.60;;;;;;;;;;5033769;28;20173;-73
2021/04/08 15:04:07;;;;;;;5.80;3.27;;;;;;;;;;5033660;28;20177;-73
2021/04/08 15:07:16;;;;;;;4.80;3.37;;;;;;;;;;5032832;28;20177;-74
2021/04/08 15:10:20;;;;;;;7.33;3.03;;;;;;;;;;5032365;28;20192;-73
2021/04/08 15:13:24;;;;;;;3.67;2.73;;;;;;;;;;5033298;28;20188;-74
2021/04/08 15:16:29;;;;;;;6.90;2.87;;;;;;;;;;5033805;28;20177;-74
2021/04/08 15:19:33;;;;;;;4.63;3.10;;;;;;;;;;5033186;28;20209;-74
2021/04/08 15:22:38;;;;;;;17.17;3.93;;;;;;;;;;5033447;28;20173;-74
2021/04/08 15:25:43;;;;;;;5.43;2.80;;;;;;;;;;5033358;28;20181;-74
2021/04/08 15:28:47;;;;;;;5.70;3.87;;;;;;;;;;5023545;28;20213;-74
2021/04/08 15:31:52;;;;;;;5.60;3.40;;;;;;;;;;5012369;28;20205;-73
2021/04/08 15:34:56;;;;;;;4.17;2.83;;;;;;;;;;5020111;28;20197;-74
2021/04/08 15:38:00;;;;;;;6.10;3.30;;;;;;;;;;5019519;28;20196;-74
2021/04/08 15:41:04;;;;;;;7.40;3.50;;;;;;;;;;5013848;28;20660;-74
2021/04/08 15:44:09;;;;;;;5.40;3.03;;;;;;;;;;5018369;28;20208;-74
2021/04/08 15:47:13;;;;;;;5.50;3.30;;;;;;;;;;5020353;28;20204;-74
2021/04/08 15:50:19;;;;;;;5.40;3.60;;;;;;;;;;5037020;28;20216;-73
2021/04/08 15:53:23;;;;;;;5.20;3.23;;;;;;;;;;5020580;28;20190;-74
2021/04/08 15:56:27;;;;;;;4.13;3.00;;;;;;;;;;4994297;28;20191;-74
2021/04/08 15:59:31;;;;;;;5.00;3.60;;;;;;;;;;5016938;28;20703;-74
2021/04/08 16:02:35;;;;;;;5.43;4.40;;;;;;;;;;5030187;28;20212;-74
2021/04/08 16:05:40;;;;;;;4.03;3.40;;;;;;;;;;5017075;28;20189;-74
2021/04/08 16:08:45;;;;;;;4.27;3.23;;;;;;;;;;5022957;28;20217;-74
2021/04/08 16:11:49;;;;;;;5.60;3.07;;;;;;;;;;5025643;28;20216;-73
2021/04/08 16:14:54;;;;;;;4.77;3.10;;;;;;;;;;5020605;28;20184;-74
2021/04/08 16:17:58;;;;;;;5.30;3.67;;;;;;;;;;5023733;28;20574;-74
2021/04/08 16:21:03;;;;;;;6.63;4.60;;;;;;;;;;5025940;28;20560;-74
2021/04/08 16:24:09;;;;;;;4.80;3.70;;;;;;;;;;5016830;28;20201;-74
2021/04/08 16:27:13;;;;;;;4.40;3.43;;;;;;;;;;5015917;28;20181;-74
2021/04/08 16:30:18;;;;;;;4.57;3.47;;;;;;;;;;5023044;28;20225;-74
2021/04/08 16:33:22;;;;;;;4.10;3.20;;;;;;;;;;5024223;28;20185;-74
2021/04/08 16:36:26;;;;;;;8.27;3.07;;;;;;;;;;5036436;28;20560;-74
2021/04/08 16:39:31;;;;;;;7.33;3.37;;;;;;;;;;5036250;28;20216;-74
2021/04/08 16:42:36;;;;;;;4.67;3.03;;;;;;;;;;5004346;28;20181;-74
2021/04/08 16:45:42;;;;;;;7.13;2.97;;;;;;;;;;5016632;28;20548;-74
2021/04/08 16:48:46;;;;;;;10.57;6.17;;;;;;;;;;5015336;28;20221;-73
2021/04/08 16:51:50;;;;;;;5.60;3.37;;;;;;;;;;5030209;28;20205;-74
2021/04/08 16:54:55;;;;;;;8.30;3.30;;;;;;;;;;5033816;28;20192;-73
2021/04/08 16:57:59;;;;;;;6.77;3.40;;;;;;;;;;5028970;28;20185;-74
2021/04/08 17:01:03;;;;;;;97.80;37.63;;;;;;;;;;5022543;28;20196;-74
2021/04/08 17:04:07;;;;;;;35.73;15.17;;;;;;;;;;5039415;28;20184;-73
2021/04/08 17:07:11;;;;;;;42.20;17.33;;;;;;;;;;5035062;28;20655;-74
2021/04/08 17:10:16;;;;;;;10.93;5.77;;;;;;;;;;5033731;28;20549;-74
2021/04/08 17:13:20;;;;;;;9.37;4.60;;;;;;;;;;5014830;28;20182;-74
2021/04/08 17:16:25;;;;;;;17.80;6.97;;;;;;;;;;5005100;28;20197;-74
2021/04/08 17:19:28;;;;;;;6.03;3.70;;;;;;;;;;5027459;28;20216;-74
2021/04/08 17:22:34;;;;;;;9.33;5.13;;;;;;;;;;5016360;28;20564;-74
2021/04/08 17:25:38;;;;;;;8.73;4.20;;;;;;;;;;5016023;28;20185;-72
2021/04/08 17:28:42;;;;;;;6.10;4.53;;;;;;;;;;5025556;28;20225;-72
2021/04/08 17:31:46;;;;;;;6.97;4.47;;;;;;;;;;5026796;28;20213;-72
2021/04/08 17:34:50;;;;;;;6.27;4.30;;;;;;;;;;5035077;28;20563;-72
2021/04/08 17:37:54;;;;;;;6.33;4.00;;;;;;;;;;5032850;28;20635;-72
2021/04/08 17:40:59;;;;;;;6.17;3.80;;;;;;;;;;5020059;28;20189;-72
2021/04/08 17:44:03;;;;;;;7.83;3.90;;;;;;;;;;5034460;28;20189;-72
2021/04/08 17:47:08;;;;;;;4.90;3.27;;;;;;;;;;5035058;28;20539;-72
2021/04/08 17:50:12;;;;;;;3.93;2.90;;;;;;;;;;5014830;28;20217;-73
2021/04/08 17:53:16;;;;;;;7.63;3.77;;;;;;;;;;5015264;28;20197;-72
2021/04/08 17:56:20;;;;;;;6.77;3.50;;;;;;;;;;5014774;28;20186;-72
2021/04/08 17:59:25;;;;;;;5.43;3.10;;;;;;;;;;5028226;28;20224;-72
2021/04/08 18:02:28;;;;;;;4.37;2.80;;;;;;;;;;5033871;28;20212;-72
2021/04/08 18:05:33;;;;;;;4.80;2.80;;;;;;;;;;5032978;28;20591;-72
2021/04/08 18:08:38;;;;;;;4.27;2.93;;;;;;;;;;5027989;28;20644;-73
2021/04/08 18:11:45;;;;;;;5.00;3.00;;;;;;;;;;5015883;28;20205;-72
2021/04/08 18:14:49;;;;;;;19.57;4.53;;;;;;;;;;5014470;28;20549;-72
2021/04/08 18:17:54;;;;;;;5.47;2.87;;;;;;;;;;5014513;28;20552;-72
2021/04/08 18:20:58;;;;;;;4.90;3.23;;;;;;;;;;5014993;28;20585;-72
2021/04/08 18:24:03;;;;;;;5.83;3.37;;;;;;;;;;5014549;28;20541;-72
2021/04/08 18:27:08;;;;;;;4.33;3.00;;;;;;;;;;5029513;28;20587;-72
2021/04/08 18:30:14;;;;;;;6.97;3.23;;;;;;;;;;5016857;28;20640;-73
2021/04/08 18:33:20;;;;;;;5.10;3.17;;;;;;;;;;5027663;28;20627;-72